Terminal Aerodrome Forecast
Issued by NWS

Home | Current Version | Previous Version | Text Only | Print | Product List | Glossary On
Versions: 1 2 3 4 5 6 7 8 9 10 11 12 13 14 15 16 17 18 19
000
FTUS46 KSEW 210200 AAB
TAFPAE
TAF AMD
KPAE 210241Z 2103/2124 17008KT P6SM -SHRA VCTS BKN030 BKN060CB
      TEMPO 2103/2104 VRB10KT 2SM +SHRA OVC030
     FM210400 16010KT P6SM VCSH BKN030
      TEMPO 2104/2106 -SHRA OVC030
     FM210600 14008KT P6SM OVC030
     FM211800 17012KT P6SM OVC030=

USA.gov is the U.S. government's official web portal to all federal, state and local government web resources and services.